Time;durP1;ratioP1;P1;durP2;ratioP2;P2;SDS_P1;SDS_P2;PMS_P1;PMS_P2;Temp;Humidity;BMP_temperature;BMP_pressure;BME280_temperature;BME280_humidity;BME280_pressure;Samples;Min_cycle;Max_cycle;Signal;HPM_P1;HPM_P2
2021/11/01 00:02:42;;;;;;;0.80;0.50;;;20.40;40.80;20.90;92715.00;;;;10433711;28;47168;-63
2021/11/01 00:07:43;;;;;;;1.10;0.50;;;20.50;40.90;20.80;92724.00;;;;10433535;28;46222;-63
2021/11/01 00:12:44;;;;;;;0.80;0.57;;;20.50;40.90;20.80;92715.00;;;;10434042;28;45399;-63
2021/11/01 00:17:45;;;;;;;0.68;0.50;;;20.40;40.90;20.80;92719.00;;;;10434186;28;45209;-62
2021/11/01 00:22:45;;;;;;;0.57;0.50;;;20.50;40.90;20.80;92712.00;;;;10434508;28;45133;-63
2021/11/01 00:27:48;;;;;;;0.60;0.40;;;20.40;40.90;20.80;92711.00;;;;10416409;28;47180;-63
2021/11/01 00:32:49;;;;;;;0.70;0.60;;;20.40;41.00;20.80;92704.00;;;;10416423;28;46988;-63
2021/11/01 00:37:50;;;;;;;0.73;0.55;;;20.40;40.90;20.80;92694.00;;;;10432978;28;45591;-64
2021/11/01 00:42:50;;;;;;;0.50;0.47;;;20.40;41.00;20.80;92696.00;;;;10432918;28;45532;-62
2021/11/01 00:47:51;;;;;;;1.10;0.60;;;20.40;41.00;20.70;92682.00;;;;10439747;28;45373;-63
2021/11/01 00:52:52;;;;;;;0.40;0.40;;;20.40;41.00;20.70;92686.00;;;;10474493;28;45528;-63
2021/11/01 00:57:52;;;;;;;0.47;0.40;;;20.40;41.00;20.70;92694.00;;;;10475320;28;46171;-63
2021/11/01 01:02:53;;;;;;;0.57;0.50;;;20.40;41.00;20.70;92684.00;;;;10474194;28;47127;-63
2021/11/01 01:07:54;;;;;;;0.50;0.47;;;20.40;41.10;20.70;92694.00;;;;10474338;28;45190;-63
2021/11/01 01:12:55;;;;;;;0.40;0.40;;;20.40;41.10;20.70;92685.00;;;;10474577;28;45209;-63
2021/11/01 01:18:03;;;;;;;0.68;0.55;;;20.40;41.10;20.70;92685.00;;;;10473822;28;45369;-63
2021/11/01 01:23:04;;;;;;;0.98;0.40;;;20.40;41.10;20.70;92677.00;;;;10474853;28;46078;-63
2021/11/01 01:28:04;;;;;;;1.02;0.50;;;20.30;41.10;20.70;92689.00;;;;10473109;28;45992;-63
2021/11/01 01:33:10;;;;;;;0.40;0.40;;;20.40;41.20;20.70;92668.00;;;;10472975;28;45475;-63
2021/11/01 01:38:12;;;;;;;0.82;0.52;;;20.30;41.20;20.70;92688.00;;;;10472723;28;45339;-63
2021/11/01 01:43:12;;;;;;;0.90;0.65;;;20.30;41.20;20.70;92674.00;;;;10472916;28;48316;-61
2021/11/01 01:48:13;;;;;;;0.47;0.32;;;20.30;41.20;20.60;92676.00;;;;10462701;28;45305;-63
2021/11/01 01:53:14;;;;;;;0.50;0.40;;;20.30;41.20;20.70;92662.00;;;;10414631;28;47487;-63
2021/11/01 01:58:15;;;;;;;0.52;0.40;;;20.30;41.20;20.60;92682.00;;;;10430466;28;46533;-62
2021/11/01 02:03:15;;;;;;;0.60;0.50;;;20.30;41.30;20.60;92689.00;;;;10425988;28;45471;-63
2021/11/01 02:08:17;;;;;;;1.67;0.50;;;20.30;41.30;20.60;92710.00;;;;10412970;28;47576;-63
2021/11/01 02:13:24;;;;;;;0.38;0.38;;;20.30;41.40;20.60;92697.00;;;;10430118;28;48002;-61
2021/11/01 02:18:29;;;;;;;0.65;0.47;;;20.30;41.40;20.60;92716.00;;;;10432827;28;45570;-64
2021/11/01 02:23:53;;;;;;;0.77;0.55;;;20.30;41.40;20.60;92699.00;;;;10437016;28;45333;-62
2021/11/01 02:28:54;;;;;;;0.47;0.40;;;20.20;41.50;20.60;92685.00;;;;10438378;28;45220;-62
2021/11/01 02:33:55;;;;;;;0.40;0.40;;;20.20;41.40;20.60;92702.00;;;;10438100;28;45424;-62
2021/11/01 02:38:57;;;;;;;0.45;0.43;;;20.20;41.50;20.60;92702.00;;;;10437797;28;47113;-62
2021/11/01 02:44:02;;;;;;;0.40;0.40;;;20.20;41.50;20.60;92696.00;;;;10437332;28;47327;-64
2021/11/01 02:49:03;;;;;;;0.47;0.30;;;20.20;41.60;20.60;92676.00;;;;10437706;28;46396;-62
2021/11/01 02:54:04;;;;;;;0.50;0.30;;;20.20;41.60;20.50;92678.00;;;;10437330;28;46061;-61
2021/11/01 02:59:05;;;;;;;0.43;0.30;;;20.20;42.30;20.50;92694.00;;;;10437495;28;45197;-62
2021/11/01 03:04:06;;;;;;;0.65;0.35;;;20.20;41.60;20.50;92692.00;;;;10420149;28;47419;-63
2021/11/01 03:09:07;;;;;;;0.40;0.40;;;20.20;41.60;20.50;92699.00;;;;10436956;28;45419;-62
2021/11/01 03:14:09;;;;;;;0.30;0.30;;;20.20;41.70;20.50;92681.00;;;;10436702;28;45522;-61
2021/11/01 03:19:18;;;;;;;0.38;0.30;;;20.20;41.70;20.50;92709.00;;;;10435617;28;46886;-63
2021/11/01 03:24:20;;;;;;;0.57;0.30;;;20.20;41.70;20.50;92697.00;;;;10440073;28;45576;-63
2021/11/01 03:29:22;;;;;;;0.40;0.30;;;20.20;41.70;20.50;92688.00;;;;10459357;28;47119;-61
2021/11/01 03:34:23;;;;;;;0.15;0.15;;;20.20;41.70;20.50;92704.00;;;;10476904;28;46221;-61
2021/11/01 03:39:25;;;;;;;0.20;0.20;;;20.10;41.70;20.50;92689.00;;;;10477157;28;47389;-63
2021/11/01 03:44:29;;;;;;;0.22;0.22;;;20.10;41.60;20.50;92688.00;;;;10477171;28;45201;-63
2021/11/01 03:49:32;;;;;;;0.20;0.20;;;20.10;41.60;20.50;92693.00;;;;10455640;28;45235;-63
2021/11/01 03:54:33;;;;;;;0.50;0.30;;;20.10;41.60;20.50;92717.00;;;;10435076;28;46241;-64
2021/11/01 03:59:36;;;;;;;0.25;0.20;;;20.10;41.70;20.40;92720.00;;;;10435166;28;45346;-63
2021/11/01 04:04:37;;;;;;;0.20;0.20;;;20.10;41.70;20.50;92722.00;;;;10434445;28;45424;-62
2021/11/01 04:09:38;;;;;;;0.20;0.20;;;20.10;41.70;20.50;92729.00;;;;10450341;28;47056;-62
2021/11/01 04:14:44;;;;;;;0.32;0.20;;;20.10;41.70;20.50;92741.00;;;;10433977;28;45612;-63
2021/11/01 04:19:56;;;;;;;0.20;0.10;;;20.10;41.70;20.40;92729.00;;;;10434121;28;47042;-63
2021/11/01 04:24:58;;;;;;;0.28;0.20;;;20.10;41.60;20.40;92724.00;;;;10459973;28;45183;-63
2021/11/01 04:30:00;;;;;;;0.35;0.20;;;20.10;41.60;20.40;92746.00;;;;10476334;28;45271;-63
2021/11/01 04:35:11;;;;;;;0.10;0.10;;;20.10;41.60;20.40;92753.00;;;;10475122;28;46166;-63
2021/11/01 04:56:13;;;;;;;0.10;0.10;;;20.00;41.60;20.40;92745.00;;;;10391214;28;45058;-63
2021/11/01 05:01:18;;;;;;;0.00;0.00;;;20.00;41.60;20.40;92751.00;;;;10390818;28;47218;-63
2021/11/01 05:06:22;;;;;;;0.10;0.10;;;20.00;41.60;20.40;92756.00;;;;10390251;28;47039;-63
2021/11/01 05:11:36;;;;;;;0.28;0.00;;;20.00;41.60;20.50;92728.00;;;;10392108;28;45338;-63
2021/11/01 05:16:51;;;;;;;0.00;0.00;;;20.10;41.60;20.60;92748.00;;;;10390218;28;46156;-63
2021/11/01 05:27:33;;;;;;;0.00;0.00;;;20.20;41.50;20.60;92740.00;;;;10474626;28;45283;-62
2021/11/01 05:32:33;;;;;;;0.20;0.03;;;20.20;41.40;20.70;92743.00;;;;10473117;28;45173;-63
2021/11/01 05:37:34;;;;;;;0.00;0.00;;;20.30;41.40;20.70;92759.00;;;;10473144;28;45356;-63
2021/11/01 05:42:35;;;;;;;0.10;0.00;;;20.30;41.40;20.70;92749.00;;;;10472967;28;45452;-62
2021/11/01 05:47:36;;;;;;;0.10;0.00;;;20.40;41.30;20.70;92768.00;;;;10419612;28;46893;-63
2021/11/01 05:52:37;;;;;;;0.35;0.10;;;20.40;41.20;20.70;92755.00;;;;10473227;28;45373;-62
2021/11/01 06:02:48;;;;;;;0.00;0.00;;;20.40;41.10;20.80;92768.00;;;;10481255;28;46041;-62
2021/11/01 06:18:11;;;;;;;0.00;0.00;;;20.50;40.90;20.80;92786.00;;;;10479409;28;45249;-63
2021/11/01 06:23:12;;;;;;;0.15;0.00;;;20.50;40.80;20.80;92790.00;;;;10467439;28;45332;-63
2021/11/01 06:28:14;;;;;;;0.20;0.00;;;20.50;40.70;20.90;92789.00;;;;10419831;28;48198;-62
2021/11/01 06:33:28;;;;;;;0.00;0.00;;;20.50;40.60;20.90;92803.00;;;;10437287;28;45360;-62
2021/11/01 07:15:06;;;;;;;0.20;0.03;;;20.60;40.00;20.90;92894.00;;;;10437028;28;45362;-63
2021/11/01 07:20:21;;;;;;;0.10;0.00;;;20.60;39.90;20.90;92881.00;;;;10435189;28;46888;-63
2021/11/01 08:39:37;;;;;;;1.13;0.20;;;20.80;39.10;21.10;92941.00;;;;10474572;28;45152;-62
2021/11/01 09:26:51;;;;;;;0.88;0.30;;;21.00;41.40;21.30;92899.00;;;;10343830;28;45397;-65
2021/11/01 09:42:24;;;;;;;1.45;0.20;;;21.00;41.90;21.30;92894.00;;;;10437420;28;45896;-62
2021/11/01 09:47:25;;;;;;;1.67;0.30;;;21.00;41.90;21.30;92904.00;;;;10441735;28;48066;-67
2021/11/01 09:52:26;;;;;;;0.77;0.20;;;21.00;42.00;21.30;92901.00;;;;10463157;28;47774;-64
2021/11/01 09:57:35;;;;;;;1.15;0.30;;;21.00;41.50;21.30;92885.00;;;;10459538;28;47115;-63
2021/11/01 10:02:46;;;;;;;1.38;0.50;;;21.00;41.50;21.30;92884.00;;;;10437521;28;45449;-64
2021/11/01 10:07:47;;;;;;;0.77;0.38;;;21.00;41.60;21.20;92876.00;;;;10437008;28;46033;-66
2021/11/01 10:12:49;;;;;;;0.73;0.38;;;21.00;41.20;21.20;92916.00;;;;10436947;28;45432;-63
2021/11/01 10:18:06;;;;;;;0.68;0.28;;;21.00;41.50;21.30;92907.00;;;;10437322;28;45251;-64
2021/11/01 10:23:23;;;;;;;0.57;0.40;;;21.00;41.80;21.30;92850.00;;;;10438414;28;45515;-63
2021/11/01 10:28:31;;;;;;;1.48;0.30;;;21.00;41.60;21.30;92872.00;;;;10438529;28;45194;-64
2021/11/01 10:33:46;;;;;;;0.40;0.20;;;21.00;42.00;21.40;92898.00;;;;10449934;28;46282;-63
2021/11/01 10:39:02;;;;;;;1.63;0.40;;;21.10;42.20;21.40;92897.00;;;;10421093;28;48160;-63
2021/11/01 10:45:11;;;;;;;0.70;0.25;;;21.10;42.30;21.40;92866.00;;;;10436344;28;46934;-63
2021/11/01 11:32:19;;;;;;;0.65;0.20;;;21.00;42.70;21.30;92829.00;;;;10477573;28;45444;-61
2021/11/01 11:48:23;;;;;;;0.47;0.28;;;20.90;42.90;21.30;92808.00;;;;10465209;28;45177;-61
2021/11/01 11:53:24;;;;;;;0.60;0.10;;;21.00;43.10;21.30;92796.00;;;;10464353;28;45944;-60
2021/11/01 11:58:44;;;;;;;0.40;0.28;;;21.00;43.10;21.30;92791.00;;;;10436217;28;47145;-62
2021/11/01 12:03:44;;;;;;;0.35;0.20;;;21.00;43.00;21.30;92785.00;;;;10472020;28;45293;-62
2021/11/01 12:08:53;;;;;;;1.00;0.40;;;21.00;43.10;21.30;92776.00;;;;10476712;28;45424;-61
2021/11/01 12:14:15;;;;;;;0.52;0.15;;;21.00;43.20;21.30;92778.00;;;;10476344;28;47160;-62
2021/11/01 12:19:17;;;;;;;1.23;0.43;;;21.00;43.10;21.30;92769.00;;;;10475540;28;45467;-60
2021/11/01 12:24:21;;;;;;;0.20;0.20;;;21.00;43.20;21.30;92765.00;;;;10454312;28;46108;-62
2021/11/01 12:29:23;;;;;;;0.35;0.28;;;20.90;43.20;21.20;92758.00;;;;10433400;28;46180;-62
2021/11/01 12:34:24;;;;;;;0.57;0.30;;;20.90;43.10;21.30;92770.00;;;;10433742;28;45476;-61
2021/11/01 12:39:53;;;;;;;0.40;0.40;;;20.90;43.10;21.30;92778.00;;;;10433967;28;47203;-61
2021/11/01 12:45:31;;;;;;;0.30;0.30;;;20.90;43.10;21.30;92752.00;;;;10431865;28;46374;-61
2021/11/01 13:01:15;;;;;;;1.20;0.40;;;20.90;43.20;21.20;92740.00;;;;10416571;28;45225;-62
2021/11/01 13:06:32;;;;;;;0.90;0.52;;;20.90;43.20;21.20;92738.00;;;;10432372;28;46092;-61
2021/11/01 13:12:13;;;;;;;1.92;0.85;;;21.00;43.20;21.30;92722.00;;;;10439201;28;45247;-61
2021/11/01 13:18:05;;;;;;;3.17;1.10;;;20.90;43.20;21.20;92716.00;;;;10427636;28;46852;-64
2021/11/01 13:22:32;;;;;;;2.40;1.00;;;20.90;43.30;21.20;92721.00;;;;10415740;28;45238;-64
2021/11/01 13:27:56;;;;;;;2.13;0.80;;;20.90;43.40;21.30;92720.00;;;;10429895;28;45263;-64
2021/11/01 13:38:27;;;;;;;3.58;0.90;;;21.00;43.70;21.30;92717.00;;;;10430141;28;45779;-63
2021/11/01 13:43:30;;;;;;;2.00;0.75;;;21.00;43.60;21.30;92714.00;;;;10420392;28;45335;-62
2021/11/01 13:48:33;;;;;;;3.95;0.90;;;21.00;43.60;21.40;92716.00;;;;10429940;28;46453;-61
2021/11/01 13:53:46;;;;;;;1.50;0.57;;;21.10;43.30;21.40;92693.00;;;;10413224;28;45268;-60
2021/11/01 13:58:55;;;;;;;2.28;0.80;;;21.10;43.60;21.40;92703.00;;;;10430912;28;45530;-63
2021/11/01 14:14:30;;;;;;;0.90;0.50;;;21.10;43.50;21.30;92697.00;;;;10430810;28;45146;-61
2021/11/01 15:22:18;;;;;;;0.73;0.40;;;21.10;43.10;21.40;92678.00;;;;10431033;28;45216;-63
2021/11/01 15:43:04;;;;;;;;;;;21.20;42.80;21.50;92693.00;;;;10394201;28;45324;-62
2021/11/01 16:15:27;;;;;;;0.60;0.22;;;21.20;42.80;21.40;92692.00;;;;10415845;28;45440;-62
2021/11/01 16:20:11;;;;;;;0.20;0.20;;;21.20;42.50;21.50;92714.00;;;;10438391;28;45490;-63
2021/11/01 16:25:12;;;;;;;0.45;0.30;;;21.20;42.40;21.50;92735.00;;;;10474839;28;47247;-64
2021/11/01 16:30:18;;;;;;;0.45;0.22;;;21.20;42.40;21.50;92744.00;;;;10459078;28;45136;-62
2021/11/01 16:35:23;;;;;;;;;;;21.20;42.40;21.50;92714.00;;;;10434932;28;45846;-62
2021/11/01 16:40:25;;;;;;;0.28;0.28;;;21.20;42.20;21.40;92724.00;;;;10433714;28;45615;-62
2021/11/01 16:45:31;;;;;;;0.77;0.40;;;21.20;41.90;21.40;92707.00;;;;10432816;28;45245;-63
2021/11/01 16:50:33;;;;;;;1.00;0.33;;;21.10;41.80;21.40;92722.00;;;;10434230;28;45350;-62
2021/11/01 16:55:41;;;;;;;0.40;0.20;;;21.10;41.80;21.40;92717.00;;;;10433058;28;45189;-60
2021/11/01 17:00:51;;;;;;;0.40;0.20;;;21.10;41.80;21.40;92724.00;;;;10432697;28;45207;-63
2021/11/01 17:27:14;;;;;;;2.67;0.50;;;21.10;41.50;21.40;92714.00;;;;10453144;28;45275;-61
2021/11/01 17:37:59;;;;;;;0.88;0.60;;;21.10;42.00;21.30;92718.00;;;;10474087;28;45112;-61
2021/11/01 18:42:48;;;;;;;3.67;2.03;;;21.00;40.40;21.30;92718.00;;;;10437618;28;46375;-61
2021/11/01 18:52:41;;;;;;;2.40;1.73;;;21.00;40.30;21.30;92718.00;;;;10434631;28;45570;-60
2021/11/01 18:57:46;;;;;;;3.20;1.80;;;21.00;40.10;21.30;92721.00;;;;10435133;28;45589;-61
2021/11/01 19:02:50;;;;;;;3.47;1.85;;;21.00;40.10;21.30;92726.00;;;;10435791;28;45236;-62
2021/11/01 20:12:42;;;;;;;1.65;1.02;;;21.00;39.30;21.30;92720.00;;;;10476010;28;45526;-63
2021/11/01 21:27:32;;;;;;;1.92;0.82;;;21.00;38.70;21.30;92690.00;;;;10440379;28;45195;-63
2021/11/01 21:32:33;;;;;;;1.15;0.75;;;21.00;38.50;21.30;92675.00;;;;10445617;28;47746;-59
2021/11/01 21:37:34;;;;;;;1.20;0.68;;;21.00;38.70;21.30;92674.00;;;;10444747;28;48251;-60
2021/11/01 21:42:36;;;;;;;1.92;0.68;;;20.90;38.40;21.30;92693.00;;;;10445377;28;45391;-61
2021/11/01 21:47:37;;;;;;;1.10;0.57;;;21.00;38.40;21.30;92688.00;;;;10433076;28;48250;-61
2021/11/01 21:52:38;;;;;;;1.15;0.57;;;20.90;38.20;21.20;92682.00;;;;10487016;28;45529;-60
2021/11/01 22:23:45;;;;;;;0.68;0.40;;;20.80;38.20;21.10;92676.00;;;;10471559;28;45991;-62
2021/11/01 22:34:21;;;;;;;0.85;0.40;;;20.70;37.80;21.10;92671.00;;;;10445448;28;45317;-60
2021/11/01 22:39:28;;;;;;;1.42;0.40;;;20.80;38.00;21.10;92661.00;;;;10439436;28;45316;-60
2021/11/01 23:00:23;;;;;;;0.70;0.40;;;20.70;37.90;21.00;92644.00;;;;10479023;28;45228;-61
2021/11/01 23:31:48;;;;;;;0.52;0.20;;;20.60;37.70;21.00;92600.00;;;;10478752;28;45232;-61
2021/11/01 23:36:49;;;;;;;0.50;0.25;;;20.60;37.70;21.00;92609.00;;;;10476901;28;45235;-61
2021/11/01 23:41:50;;;;;;;0.30;0.20;;;20.60;37.90;21.00;92606.00;;;;10477292;28;45216;-61
2021/11/01 23:46:51;;;;;;;0.75;0.20;;;20.60;37.70;21.00;92590.00;;;;10476302;28;45321;-61
2021/11/01 23:52:07;;;;;;;0.70;0.28;;;20.60;37.70;21.00;92582.00;;;;10411305;28;46308;-62
2021/11/01 23:57:09;;;;;;;0.63;0.20;;;20.60;37.70;20.80;92591.00;;;;10393282;28;45453;-61
